createdAt,value
2017-09-10T00:00:03.559Z,0
2017-09-10T00:01:03.628Z,0
2017-09-10T00:02:03.732Z,0
2017-09-10T00:03:03.907Z,0
2017-09-10T00:04:03.772Z,0
2017-09-10T00:05:04.176Z,0
2017-09-10T00:06:04.238Z,0
2017-09-10T00:07:04.339Z,0
2017-09-10T00:08:04.745Z,0
2017-09-10T00:09:05.478Z,0
2017-09-10T00:10:05.145Z,0
2017-09-10T00:11:05.834Z,0
2017-09-10T00:12:05.545Z,0
2017-09-10T00:13:06.016Z,0
2017-09-10T00:14:06.549Z,0
2017-09-10T00:15:05.643Z,0
2017-09-10T00:16:06.349Z,0
2017-09-10T00:17:06.120Z,0
2017-09-10T00:18:06.510Z,0
2017-09-10T00:19:06.257Z,0
2017-09-10T00:20:07.063Z,0
2017-09-10T00:21:06.663Z,0
2017-09-10T00:22:07.017Z,0
2017-09-10T00:23:07.511Z,0
2017-09-10T00:24:06.782Z,0
2017-09-10T00:25:07.495Z,0
2017-09-10T00:26:06.884Z,0
2017-09-10T00:27:06.598Z,0
2017-09-10T00:28:07.284Z,0
2017-09-10T00:29:07.390Z,0
2017-09-10T00:30:07.759Z,0
2017-09-10T00:31:07.782Z,0
2017-09-10T00:32:08.204Z,0
2017-09-10T00:33:08.857Z,0
2017-09-10T00:34:09.511Z,0
2017-09-10T00:35:08.994Z,0
2017-09-10T00:36:09.398Z,0
2017-09-10T00:37:09.746Z,0
2017-09-10T00:38:09.534Z,0
2017-09-10T00:39:09.273Z,0
2017-09-10T00:40:10.271Z,0
2017-09-10T00:41:09.691Z,0
2017-09-10T00:42:10.049Z,0
2017-09-10T00:43:11.192Z,0
2017-09-10T00:44:11.128Z,0
2017-09-10T00:45:11.571Z,0
2017-09-10T00:46:10.893Z,0
2017-09-10T00:47:10.925Z,0
2017-09-10T00:48:11.019Z,0
2017-09-10T00:49:11.014Z,0
2017-09-10T00:50:11.152Z,0
2017-09-10T00:51:12.021Z,0
2017-09-10T00:52:11.789Z,0
2017-09-10T00:53:11.464Z,0
2017-09-10T00:54:12.254Z,0
2017-09-10T00:55:12.315Z,0
2017-09-10T00:56:12.001Z,0
2017-09-10T00:57:12.353Z,0
2017-09-10T00:58:11.812Z,0
2017-09-10T00:59:12.759Z,0
2017-09-10T01:00:13.092Z,0
2017-09-10T01:01:13.116Z,0
2017-09-10T01:02:13.641Z,0
2017-09-10T01:03:14.665Z,0
2017-09-10T01:04:13.670Z,0
2017-09-10T01:05:13.204Z,0
2017-09-10T01:06:13.317Z,0
2017-09-10T01:07:14.041Z,0
2017-09-10T01:08:14.030Z,0
2017-09-10T01:09:13.754Z,0
2017-09-10T01:10:14.284Z,0
2017-09-10T01:11:14.232Z,0
2017-09-10T01:12:14.261Z,0
2017-09-10T01:13:14.653Z,0
2017-09-10T01:14:14.675Z,0
2017-09-10T01:15:14.941Z,0
2017-09-10T01:16:15.307Z,0
2017-09-10T01:17:15.720Z,0
2017-09-10T01:18:16.430Z,0
2017-09-10T01:19:16.154Z,0
2017-09-10T01:20:16.184Z,0
2017-09-10T01:21:16.851Z,0
2017-09-10T01:22:16.953Z,0
2017-09-10T01:23:16.927Z,0
2017-09-10T01:24:16.316Z,0
2017-09-10T01:25:16.760Z,0
2017-09-10T01:26:17.021Z,0
2017-09-10T01:27:17.081Z,0
2017-09-10T01:28:16.830Z,0
2017-09-10T01:29:17.794Z,0
2017-09-10T01:30:17.783Z,0
2017-09-10T01:31:17.872Z,0
2017-09-10T01:32:16.979Z,0
2017-09-10T01:33:17.941Z,0
2017-09-10T01:34:17.949Z,0
2017-09-10T01:35:17.785Z,0
2017-09-10T01:36:17.439Z,0
2017-09-10T01:37:18.434Z,0
2017-09-10T01:38:18.148Z,0
2017-09-10T01:39:18.187Z,0
2017-09-10T01:40:18.577Z,0
2017-09-10T01:41:18.544Z,0
2017-09-10T01:42:17.936Z,0
2017-09-10T01:43:18.967Z,0
2017-09-10T01:44:18.685Z,0
2017-09-10T01:45:18.809Z,0
2017-09-10T01:46:18.679Z,0
2017-09-10T01:47:19.073Z,0
2017-09-10T01:48:18.829Z,0
2017-09-10T01:49:19.179Z,0
2017-09-10T01:50:18.376Z,0
2017-09-10T01:51:18.437Z,0
2017-09-10T01:52:19.126Z,0
2017-09-10T01:53:18.910Z,0
2017-09-10T01:54:18.640Z,0
2017-09-10T01:55:19.395Z,0
2017-09-10T01:56:20.083Z,0
2017-09-10T01:57:20.108Z,0
2017-09-10T01:58:19.812Z,0
2017-09-10T01:59:19.849Z,0
2017-09-10T02:00:19.903Z,0
2017-09-10T02:01:19.912Z,0
2017-09-10T02:02:20.322Z,0
2017-09-10T02:03:19.525Z,0
2017-09-10T02:04:20.316Z,0
2017-09-10T02:05:20.341Z,0
2017-09-10T02:06:20.352Z,0
2017-09-10T02:07:20.083Z,0
2017-09-10T02:08:20.442Z,0
2017-09-10T02:09:20.142Z,0
2017-09-10T02:10:20.150Z,0
2017-09-10T02:11:20.250Z,0
2017-09-10T02:12:20.576Z,0
2017-09-10T02:13:20.040Z,0
2017-09-10T02:14:20.426Z,0
2017-09-10T02:15:20.473Z,0
2017-09-10T02:16:20.809Z,0
2017-09-10T02:17:20.227Z,0
2017-09-10T02:18:20.657Z,0
2017-09-10T02:19:20.723Z,0
2017-09-10T02:20:21.460Z,0
2017-09-10T02:21:21.518Z,0
2017-09-10T02:22:21.539Z,0
2017-09-10T02:23:21.240Z,0
2017-09-10T02:24:21.933Z,0
2017-09-10T02:25:22.250Z,0
2017-09-10T02:26:21.989Z,0
2017-09-10T02:27:22.338Z,0
2017-09-10T02:28:21.754Z,0
2017-09-10T02:29:22.150Z,0
2017-09-10T02:30:22.187Z,0
2017-09-10T02:31:22.234Z,0
2017-09-10T02:32:21.626Z,0
2017-09-10T02:33:21.691Z,0
2017-09-10T02:34:22.345Z,0
2017-09-10T02:35:22.757Z,0
2017-09-10T02:36:22.426Z,0
2017-09-10T02:37:22.742Z,0
2017-09-10T02:38:22.511Z,0
2017-09-10T02:39:22.532Z,0
2017-09-10T02:40:22.892Z,0
2017-09-10T02:41:23.243Z,0
2017-09-10T02:42:23.249Z,0
2017-09-10T02:43:22.947Z,0
2017-09-10T02:44:23.921Z,0
2017-09-10T02:45:23.652Z,0
2017-09-10T02:46:23.676Z,0
2017-09-10T02:47:24.039Z,0
2017-09-10T02:48:23.785Z,0
2017-09-10T02:49:24.173Z,0
2017-09-10T02:50:24.813Z,0
2017-09-10T02:51:24.887Z,0
2017-09-10T02:52:25.537Z,0
2017-09-10T02:53:25.239Z,0
2017-09-10T02:54:25.037Z,0
2017-09-10T02:55:25.759Z,0
2017-09-10T02:56:25.453Z,0
2017-09-10T02:57:25.159Z,0
2017-09-10T02:58:26.130Z,0
2017-09-10T02:59:25.865Z,0
2017-09-10T03:00:25.913Z,0
2017-09-10T03:01:25.286Z,0
2017-09-10T03:02:26.012Z,0
2017-09-10T03:03:26.046Z,0
2017-09-10T03:04:26.028Z,0
2017-09-10T03:05:26.079Z,0
2017-09-10T03:06:26.115Z,0
2017-09-10T03:07:25.847Z,0
2017-09-10T03:08:26.537Z,0
2017-09-10T03:09:26.568Z,0
2017-09-10T03:10:26.637Z,0
2017-09-10T03:11:26.685Z,0
2017-09-10T03:12:27.045Z,0
2017-09-10T03:13:26.726Z,0
2017-09-10T03:14:27.422Z,0
2017-09-10T03:15:27.838Z,0
2017-09-10T03:16:27.436Z,0
2017-09-10T03:17:27.779Z,0
2017-09-10T03:18:27.210Z,0
2017-09-10T03:19:27.875Z,0
2017-09-10T03:20:27.129Z,0
2017-09-10T03:21:27.682Z,0
2017-09-10T03:22:27.977Z,0
2017-09-10T03:23:27.724Z,0
2017-09-10T03:24:27.398Z,0
2017-09-10T03:25:28.058Z,0
2017-09-10T03:26:27.833Z,0
2017-09-10T03:27:28.461Z,0
2017-09-10T03:28:27.922Z,0
2017-09-10T03:29:28.252Z,0
2017-09-10T03:30:28.991Z,0
2017-09-10T03:31:28.973Z,0
2017-09-10T03:32:28.728Z,0
2017-09-10T03:33:29.460Z,0
2017-09-10T03:34:28.825Z,0
2017-09-10T03:35:29.206Z,0
2017-09-10T03:36:29.282Z,0
2017-09-10T03:37:29.656Z,0
2017-09-10T03:38:29.644Z,0
2017-09-10T03:39:29.376Z,0
2017-09-10T03:40:29.989Z,0
2017-09-10T03:41:30.054Z,0
2017-09-10T03:42:30.091Z,0
2017-09-10T03:43:29.498Z,0
2017-09-10T03:44:30.541Z,0
2017-09-10T03:45:29.583Z,0
2017-09-10T03:46:30.257Z,0
2017-09-10T03:47:29.698Z,0
2017-09-10T03:48:30.661Z,0
2017-09-10T03:49:30.925Z,0
2017-09-10T03:50:30.121Z,0
2017-09-10T03:51:31.086Z,0
2017-09-10T03:52:30.829Z,0
2017-09-10T03:53:30.927Z,0
2017-09-10T03:54:30.929Z,0
2017-09-10T03:55:31.249Z,0
2017-09-10T03:56:30.661Z,0
2017-09-10T03:57:30.699Z,0
2017-09-10T03:58:30.465Z,0
2017-09-10T03:59:31.427Z,0
2017-09-10T04:00:31.193Z,0
2017-09-10T04:01:31.935Z,0
2017-09-10T04:02:31.983Z,0
2017-09-10T04:03:32.310Z,0
2017-09-10T04:04:32.338Z,0
2017-09-10T04:05:31.246Z,0
2017-09-10T04:06:32.410Z,0
2017-09-10T04:07:31.796Z,0
2017-09-10T04:08:32.535Z,0
2017-09-10T04:09:32.563Z,0
2017-09-10T04:10:32.912Z,0
2017-09-10T04:11:32.946Z,0
2017-09-10T04:12:32.970Z,0
2017-09-10T04:13:32.692Z,0
2017-09-10T04:14:33.094Z,0
2017-09-10T04:15:33.825Z,0
2017-09-10T04:16:33.549Z,0
2017-09-10T04:17:33.926Z,0
2017-09-10T04:18:33.987Z,0
2017-09-10T04:19:33.991Z,0
2017-09-10T04:20:34.029Z,0
2017-09-10T04:21:34.080Z,0
2017-09-10T04:22:34.100Z,0
2017-09-10T04:23:33.814Z,0
2017-09-10T04:24:34.297Z,0
2017-09-10T04:25:34.593Z,0
2017-09-10T04:26:34.305Z,0
2017-09-10T04:27:34.660Z,0
2017-09-10T04:28:34.372Z,0
2017-09-10T04:29:35.084Z,0
2017-09-10T04:30:35.123Z,0
2017-09-10T04:31:34.834Z,0
2017-09-10T04:32:35.589Z,0
2017-09-10T04:33:35.264Z,0
2017-09-10T04:34:35.299Z,0
2017-09-10T04:35:35.332Z,0
2017-09-10T04:36:35.693Z,0
2017-09-10T04:37:35.712Z,5
2017-09-10T04:38:35.421Z,5
2017-09-10T04:39:35.794Z,5
2017-09-10T04:40:35.494Z,5
2017-09-10T04:41:35.841Z,5
2017-09-10T04:42:35.878Z,5
2017-09-10T04:43:35.580Z,5
2017-09-10T04:44:35.623Z,5
2017-09-10T04:45:35.336Z,5
2017-09-10T04:46:36.087Z,5
2017-09-10T04:47:35.794Z,10
2017-09-10T04:48:35.882Z,10
2017-09-10T04:49:36.221Z,10
2017-09-10T04:50:36.249Z,10
2017-09-10T04:51:35.658Z,10
2017-09-10T04:52:36.417Z,10
2017-09-10T04:53:36.114Z,15
2017-09-10T04:54:36.523Z,15
2017-09-10T04:55:36.553Z,15
2017-09-10T04:56:37.275Z,15
2017-09-10T04:57:37.300Z,20
2017-09-10T04:58:36.999Z,20
2017-09-10T04:59:37.656Z,20
2017-09-10T05:00:36.765Z,25
2017-09-10T05:01:37.519Z,30
2017-09-10T05:02:37.559Z,30
2017-09-10T05:03:37.259Z,30
2017-09-10T05:04:38.004Z,35
2017-09-10T05:05:37.774Z,35
2017-09-10T05:06:38.829Z,35
2017-09-10T05:07:38.550Z,40
2017-09-10T05:08:38.953Z,40
2017-09-10T05:09:39.292Z,45
2017-09-10T05:10:39.017Z,45
2017-09-10T05:11:39.355Z,50
2017-09-10T05:12:39.078Z,50
2017-09-10T05:13:39.431Z,50
2017-09-10T05:14:39.457Z,55
2017-09-10T05:15:39.483Z,55
2017-09-10T05:16:39.554Z,60
2017-09-10T05:17:38.922Z,60
2017-09-10T05:18:39.639Z,60
2017-09-10T05:19:40.028Z,60
2017-09-10T05:20:40.078Z,60
2017-09-10T05:21:40.415Z,60
2017-09-10T05:22:40.450Z,65
2017-09-10T05:23:40.169Z,65
2017-09-10T05:24:40.521Z,70
2017-09-10T05:25:40.539Z,75
2017-09-10T05:26:39.929Z,85
2017-09-10T05:27:40.661Z,95
2017-09-10T05:28:40.047Z,105
2017-09-10T05:29:40.791Z,120
2017-09-10T05:30:40.511Z,130
2017-09-10T05:31:41.574Z,140
2017-09-10T05:32:41.282Z,155
2017-09-10T05:33:41.299Z,160
2017-09-10T05:34:41.026Z,165
2017-09-10T05:35:41.773Z,170
2017-09-10T05:36:42.113Z,180
2017-09-10T05:37:41.827Z,180
2017-09-10T05:38:41.861Z,180
2017-09-10T05:39:41.905Z,180
2017-09-10T05:40:41.929Z,175
2017-09-10T05:41:41.939Z,170
2017-09-10T05:42:42.320Z,175
2017-09-10T05:43:42.030Z,175
2017-09-10T05:44:41.747Z,180
2017-09-10T05:45:41.854Z,180
2017-09-10T05:46:42.281Z,175
2017-09-10T05:47:43.339Z,180
2017-09-10T05:48:43.360Z,185
2017-09-10T05:49:43.085Z,190
2017-09-10T05:50:43.129Z,190
2017-09-10T05:51:43.143Z,185
2017-09-10T05:52:43.515Z,175
2017-09-10T05:53:43.208Z,160
2017-09-10T05:54:42.929Z,145
2017-09-10T05:55:43.648Z,135
2017-09-10T05:56:43.361Z,130
2017-09-10T05:57:43.718Z,130
2017-09-10T05:58:43.101Z,130
2017-09-10T05:59:43.509Z,135
2017-09-10T06:00:43.601Z,135
2017-09-10T06:01:44.372Z,135
2017-09-10T06:02:45.238Z,135
2017-09-10T06:03:44.496Z,130
2017-09-10T06:04:45.217Z,120
2017-09-10T06:05:45.275Z,115
2017-09-10T06:06:45.286Z,115
2017-09-10T06:07:45.320Z,110
2017-09-10T06:08:45.349Z,110
2017-09-10T06:09:44.750Z,110
2017-09-10T06:10:45.499Z,115
2017-09-10T06:11:46.226Z,105
2017-09-10T06:12:46.250Z,105
2017-09-10T06:13:45.628Z,110
2017-09-10T06:14:46.694Z,110
2017-09-10T06:15:46.079Z,115
2017-09-10T06:16:46.815Z,125
2017-09-10T06:17:46.847Z,130
2017-09-10T06:18:47.199Z,140
2017-09-10T06:19:47.231Z,145
2017-09-10T06:20:47.277Z,155
2017-09-10T06:21:46.977Z,155
2017-09-10T06:22:47.330Z,165
2017-09-10T06:23:46.417Z,175
2017-09-10T06:24:47.138Z,180
2017-09-10T06:25:47.194Z,170
2017-09-10T06:26:47.920Z,165
2017-09-10T06:27:47.948Z,155
2017-09-10T06:28:47.982Z,155
2017-09-10T06:29:47.384Z,155
2017-09-10T06:30:47.820Z,160
2017-09-10T06:31:48.568Z,165
2017-09-10T06:32:48.292Z,170
2017-09-10T06:33:48.639Z,175
2017-09-10T06:34:48.340Z,175
2017-09-10T06:35:48.708Z,180
2017-09-10T06:36:48.097Z,195
2017-09-10T06:37:48.767Z,215
2017-09-10T06:38:48.809Z,235
2017-09-10T06:39:48.184Z,255
2017-09-10T06:40:48.908Z,270
2017-09-10T06:41:49.381Z,290
2017-09-10T06:42:49.803Z,315
2017-09-10T06:43:48.881Z,325
2017-09-10T06:44:49.613Z,350
2017-09-10T06:45:49.708Z,415
2017-09-10T06:46:50.151Z,415
2017-09-10T06:47:50.873Z,390
2017-09-10T06:48:50.947Z,365
2017-09-10T06:49:50.749Z,350
2017-09-10T06:50:51.711Z,345
2017-09-10T06:51:52.075Z,350
2017-09-10T06:52:52.102Z,370
2017-09-10T06:53:51.812Z,360
2017-09-10T06:54:51.858Z,345
2017-09-10T06:55:52.221Z,335
2017-09-10T06:56:52.250Z,330
2017-09-10T06:57:51.641Z,330
2017-09-10T06:58:52.701Z,325
2017-09-10T06:59:52.420Z,320
2017-09-10T07:00:52.767Z,325
2017-09-10T07:01:52.480Z,345
2017-09-10T07:02:52.830Z,370
2017-09-10T07:03:52.537Z,410
2017-09-10T07:04:52.564Z,480
2017-09-10T07:05:52.933Z,570
2017-09-10T07:06:52.650Z,535
2017-09-10T07:07:53.004Z,530
2017-09-10T07:08:52.729Z,525
2017-09-10T07:09:53.061Z,535
2017-09-10T07:10:52.450Z,515
2017-09-10T07:11:53.518Z,465
2017-09-10T07:12:53.228Z,430
2017-09-10T07:13:53.319Z,410
2017-09-10T07:14:53.039Z,400
2017-09-10T07:15:53.786Z,400
2017-09-10T07:16:53.492Z,410
2017-09-10T07:17:54.222Z,440
2017-09-10T07:18:54.259Z,475
2017-09-10T07:19:54.285Z,510
2017-09-10T07:20:54.351Z,575
2017-09-10T07:21:54.354Z,615
2017-09-10T07:22:54.067Z,665
2017-09-10T07:23:54.429Z,665
2017-09-10T07:24:53.839Z,695
2017-09-10T07:25:54.914Z,635
2017-09-10T07:26:54.629Z,650
2017-09-10T07:27:54.665Z,800
2017-09-10T07:28:55.379Z,735
2017-09-10T07:29:55.115Z,700
2017-09-10T07:30:55.859Z,665
2017-09-10T07:31:55.877Z,605
2017-09-10T07:32:55.583Z,560
2017-09-10T07:33:55.313Z,520
2017-09-10T07:34:56.067Z,505
2017-09-10T07:35:55.799Z,490
2017-09-10T07:36:56.865Z,505
2017-09-10T07:37:56.251Z,505
2017-09-10T07:38:56.684Z,520
2017-09-10T07:39:57.086Z,535
2017-09-10T07:40:57.810Z,545
2017-09-10T07:41:57.521Z,540
2017-09-10T07:42:57.882Z,530
2017-09-10T07:43:57.598Z,525
2017-09-10T07:44:57.637Z,520
2017-09-10T07:45:57.972Z,525
2017-09-10T07:46:57.367Z,530
2017-09-10T07:47:57.468Z,530
2017-09-10T07:48:57.561Z,525
2017-09-10T07:49:58.630Z,525
2017-09-10T07:50:58.033Z,530
2017-09-10T07:51:58.762Z,535
2017-09-10T07:52:58.817Z,530
2017-09-10T07:53:58.205Z,565
2017-09-10T07:54:59.264Z,560
2017-09-10T07:55:58.987Z,585
2017-09-10T07:56:59.015Z,665
2017-09-10T07:57:59.122Z,570
2017-09-10T07:58:59.462Z,580
2017-09-10T07:59:59.183Z,620
2017-09-10T08:00:58.964Z,620
2017-09-10T08:01:59.633Z,635
2017-09-10T08:02:59.731Z,690
2017-09-10T08:04:00.026Z,665
2017-09-10T08:05:00.053Z,665
2017-09-10T08:05:59.762Z,635
2017-09-10T08:07:00.131Z,1060
2017-09-10T08:08:00.161Z,915
2017-09-10T08:08:59.871Z,895
2017-09-10T08:09:59.969Z,895
2017-09-10T08:11:00.071Z,1210
2017-09-10T08:12:00.106Z,1010
2017-09-10T08:13:00.538Z,1180
2017-09-10T08:14:00.242Z,995
2017-09-10T08:15:00.269Z,1045
2017-09-10T08:16:00.674Z,1210
2017-09-10T08:17:01.031Z,1215
2017-09-10T08:18:01.067Z,900
2017-09-10T08:19:00.472Z,795
2017-09-10T08:20:00.952Z,730
2017-09-10T08:21:00.594Z,715
2017-09-10T08:22:00.702Z,830
2017-09-10T08:23:01.377Z,805
2017-09-10T08:24:01.098Z,1015
2017-09-10T08:25:01.831Z,890
2017-09-10T08:26:01.565Z,1040
2017-09-10T08:27:01.661Z,1070
2017-09-10T08:28:01.744Z,1045
2017-09-10T08:29:01.843Z,1015
2017-09-10T08:30:01.951Z,920
2017-09-10T08:31:02.379Z,1020
2017-09-10T08:32:02.816Z,950
2017-09-10T08:33:02.986Z,950
2017-09-10T08:34:03.429Z,975
2017-09-10T08:35:03.854Z,1915
2017-09-10T08:36:04.961Z,1310
2017-09-10T08:37:04.632Z,2430
2017-09-10T08:38:04.994Z,2005
2017-09-10T08:39:04.720Z,1685
2017-09-10T08:40:05.450Z,2340
2017-09-10T08:41:05.482Z,2245
2017-09-10T08:42:05.530Z,2375
2017-09-10T08:43:05.253Z,2490
2017-09-10T08:44:04.951Z,2495
2017-09-10T08:45:05.371Z,2490
2017-09-10T08:46:05.751Z,2430
2017-09-10T08:47:04.825Z,2325
2017-09-10T08:48:05.178Z,1950
2017-09-10T08:49:05.944Z,1890
2017-09-10T08:50:06.043Z,2070
2017-09-10T08:51:06.509Z,2365
2017-09-10T08:52:06.509Z,2465
2017-09-10T08:53:06.291Z,2380
2017-09-10T08:54:07.049Z,2300
2017-09-10T08:55:07.166Z,1225
2017-09-10T08:56:07.186Z,2045
2017-09-10T08:57:07.494Z,2510
2017-09-10T08:58:07.218Z,2225
2017-09-10T08:59:07.628Z,2440
2017-09-10T09:00:07.659Z,2320
2017-09-10T09:01:07.748Z,2415
2017-09-10T09:02:07.147Z,2455
2017-09-10T09:03:07.845Z,2395
2017-09-10T09:04:08.204Z,2505
2017-09-10T09:05:07.663Z,2485
2017-09-10T09:06:08.168Z,2495
2017-09-10T09:07:07.968Z,2500
2017-09-10T09:08:08.667Z,2260
2017-09-10T09:09:09.105Z,530
2017-09-10T09:10:09.602Z,2560
2017-09-10T09:11:09.564Z,2670
2017-09-10T09:12:09.989Z,2705
2017-09-10T09:13:09.699Z,2510
2017-09-10T09:14:09.416Z,2550
2017-09-10T09:15:09.611Z,2415
2017-09-10T09:16:10.688Z,2335
2017-09-10T09:17:10.736Z,2360
2017-09-10T09:18:10.132Z,2370
2017-09-10T09:19:10.283Z,2505
2017-09-10T09:20:09.829Z,2390
2017-09-10T09:21:11.086Z,2410
2017-09-10T09:22:09.853Z,2430
2017-09-10T09:23:10.530Z,2540
2017-09-10T09:24:10.616Z,2505
2017-09-10T09:25:11.190Z,2460
2017-09-10T09:26:11.408Z,2460
2017-09-10T09:27:11.458Z,635
2017-09-10T09:28:11.538Z,2520
2017-09-10T09:29:10.900Z,2480
2017-09-10T09:30:11.751Z,2350
2017-09-10T09:31:11.371Z,2470
2017-09-10T09:32:11.117Z,2480
2017-09-10T09:33:10.980Z,2425
2017-09-10T09:34:11.914Z,2595
2017-09-10T09:35:11.844Z,2435
2017-09-10T09:36:12.253Z,2430
2017-09-10T09:37:12.032Z,470
2017-09-10T09:38:12.716Z,565
2017-09-10T09:39:13.105Z,460
2017-09-10T09:40:12.944Z,460
2017-09-10T09:41:13.387Z,2705
2017-09-10T09:42:14.481Z,2490
2017-09-10T09:43:13.894Z,2730
2017-09-10T09:44:14.651Z,840
2017-09-10T09:45:15.240Z,2080
2017-09-10T09:46:14.889Z,2195
2017-09-10T09:47:15.320Z,1895
2017-09-10T09:48:15.446Z,1590
2017-09-10T09:49:15.807Z,1365
2017-09-10T09:50:15.201Z,1280
2017-09-10T09:51:15.896Z,1245
2017-09-10T09:52:16.254Z,1235
2017-09-10T09:53:15.654Z,1215
2017-09-10T09:54:15.762Z,1140
2017-09-10T09:55:16.180Z,470
2017-09-10T09:56:16.625Z,375
2017-09-10T09:57:16.983Z,315
2017-09-10T09:58:16.076Z,290
2017-09-10T09:59:16.419Z,265
2017-09-10T10:00:17.180Z,375
2017-09-10T10:01:17.219Z,610
2017-09-10T10:02:17.466Z,630
2017-09-10T10:03:17.269Z,855
2017-09-10T10:04:17.354Z,810
2017-09-10T10:05:16.772Z,780
2017-09-10T10:06:17.443Z,755
2017-09-10T10:07:17.159Z,730
2017-09-10T10:08:17.547Z,715
2017-09-10T10:09:17.614Z,705
2017-09-10T10:10:18.357Z,695
2017-09-10T10:11:18.388Z,700
2017-09-10T10:12:18.430Z,695
2017-09-10T10:13:18.475Z,715
2017-09-10T10:14:18.513Z,720
2017-09-10T10:15:18.239Z,715
2017-09-10T10:16:18.625Z,735
2017-09-10T10:17:18.646Z,800
2017-09-10T10:18:18.033Z,765
2017-09-10T10:19:18.396Z,685
2017-09-10T10:20:18.117Z,695
2017-09-10T10:21:18.530Z,730
2017-09-10T10:22:18.646Z,825
2017-09-10T10:23:19.306Z,865
2017-09-10T10:24:19.712Z,895
2017-09-10T10:25:19.754Z,870
2017-09-10T10:26:20.490Z,705
2017-09-10T10:27:20.523Z,650
2017-09-10T10:28:19.935Z,520
2017-09-10T10:29:20.348Z,500
2017-09-10T10:30:20.388Z,630
2017-09-10T10:31:20.440Z,505
2017-09-10T10:32:20.792Z,460
2017-09-10T10:33:20.821Z,400
2017-09-10T10:34:20.248Z,480
2017-09-10T10:35:20.332Z,735
2017-09-10T10:36:21.069Z,720
2017-09-10T10:37:20.803Z,745
2017-09-10T10:38:21.160Z,725
2017-09-10T10:39:21.196Z,715
2017-09-10T10:40:21.228Z,715
2017-09-10T10:41:20.959Z,690
2017-09-10T10:42:20.654Z,690
2017-09-10T10:43:21.708Z,660
2017-09-10T10:44:21.116Z,670
2017-09-10T10:45:21.859Z,380
2017-09-10T10:46:21.906Z,605
2017-09-10T10:47:21.626Z,420
2017-09-10T10:48:21.760Z,760
2017-09-10T10:49:21.727Z,465
2017-09-10T10:50:21.818Z,500
2017-09-10T10:51:22.880Z,460
2017-09-10T10:52:22.279Z,435
2017-09-10T10:53:25.238Z,430
2017-09-10T10:54:25.793Z,440
2017-09-10T10:55:23.914Z,435
2017-09-10T10:56:23.633Z,460
2017-09-10T10:57:23.679Z,460
2017-09-10T10:58:24.051Z,750
2017-09-10T10:59:23.753Z,635
2017-09-10T11:00:24.282Z,605
2017-09-10T11:01:23.840Z,590
2017-09-10T11:02:24.500Z,560
2017-09-10T11:03:24.239Z,565
2017-09-10T11:04:23.959Z,570
2017-09-10T11:05:23.769Z,540
2017-09-10T11:06:24.497Z,495
2017-09-10T11:07:24.541Z,485
2017-09-10T11:08:24.576Z,520
2017-09-10T11:09:24.657Z,575
2017-09-10T11:10:24.428Z,525
2017-09-10T11:11:24.501Z,500
2017-09-10T11:12:24.911Z,550
2017-09-10T11:13:25.256Z,415
2017-09-10T11:14:24.980Z,455
2017-09-10T11:15:25.581Z,475
2017-09-10T11:16:25.042Z,580
2017-09-10T11:17:24.775Z,575
2017-09-10T11:18:25.529Z,495
2017-09-10T11:19:25.593Z,440
2017-09-10T11:20:24.653Z,415
2017-09-10T11:21:25.085Z,405
2017-09-10T11:22:25.829Z,335
2017-09-10T11:23:26.236Z,330
2017-09-10T11:24:26.280Z,310
2017-09-10T11:25:27.048Z,290
2017-09-10T11:26:26.803Z,280
2017-09-10T11:27:27.122Z,295
2017-09-10T11:28:26.533Z,315
2017-09-10T11:29:26.951Z,320
2017-09-10T11:30:27.333Z,300
2017-09-10T11:31:27.329Z,280
2017-09-10T11:32:27.382Z,280
2017-09-10T11:33:27.091Z,310
2017-09-10T11:34:27.451Z,320
2017-09-10T11:35:27.166Z,320
2017-09-10T11:36:27.552Z,365
2017-09-10T11:37:28.283Z,340
2017-09-10T11:38:27.996Z,295
2017-09-10T11:39:28.040Z,330
2017-09-10T11:40:28.767Z,340
2017-09-10T11:41:28.806Z,360
2017-09-10T11:42:28.210Z,395
2017-09-10T11:43:28.305Z,405
2017-09-10T11:44:29.359Z,425
2017-09-10T11:45:29.068Z,425
2017-09-10T11:46:28.478Z,405
2017-09-10T11:47:29.162Z,370
2017-09-10T11:48:29.579Z,360
2017-09-10T11:49:29.925Z,365
2017-09-10T11:50:29.646Z,360
2017-09-10T11:51:29.689Z,370
2017-09-10T11:52:29.720Z,400
2017-09-10T11:53:29.456Z,405
2017-09-10T11:54:30.203Z,410
2017-09-10T11:55:30.543Z,430
2017-09-10T11:56:30.589Z,370
2017-09-10T11:57:29.663Z,390
2017-09-10T11:58:30.080Z,425
2017-09-10T11:59:31.132Z,475
2017-09-10T12:00:30.864Z,455
2017-09-10T12:01:30.572Z,425
2017-09-10T12:02:31.635Z,360
2017-09-10T12:03:31.078Z,330
2017-09-10T12:04:32.410Z,320
2017-09-10T12:05:32.654Z,315
2017-09-10T12:06:31.394Z,315
2017-09-10T12:07:32.565Z,320
2017-09-10T12:08:32.484Z,325
2017-09-10T12:09:31.684Z,315
2017-09-10T12:10:32.796Z,315
2017-09-10T12:11:32.803Z,300
2017-09-10T12:12:32.640Z,295
2017-09-10T12:13:31.993Z,315
2017-09-10T12:14:32.873Z,355
2017-09-10T12:15:33.746Z,380
2017-09-10T12:16:33.921Z,390
2017-09-10T12:17:32.601Z,380
2017-09-10T12:18:33.079Z,365
2017-09-10T12:19:33.506Z,375
2017-09-10T12:20:33.538Z,365
2017-09-10T12:21:33.565Z,365
2017-09-10T12:22:34.317Z,345
2017-09-10T12:23:34.021Z,330
2017-09-10T12:24:33.430Z,315
2017-09-10T12:25:34.545Z,320
2017-09-10T12:26:33.658Z,325
2017-09-10T12:27:34.294Z,345
2017-09-10T12:28:33.973Z,350
2017-09-10T12:29:34.104Z,345
2017-09-10T12:30:34.829Z,320
2017-09-10T12:31:35.219Z,310
2017-09-10T12:32:34.629Z,300
2017-09-10T12:33:35.001Z,295
2017-09-10T12:34:35.772Z,295
2017-09-10T12:35:35.217Z,310
2017-09-10T12:36:35.656Z,310
2017-09-10T12:37:35.692Z,315
2017-09-10T12:38:35.727Z,290
2017-09-10T12:39:36.076Z,280
2017-09-10T12:40:35.166Z,285
2017-09-10T12:41:36.245Z,285
2017-09-10T12:42:36.270Z,270
2017-09-10T12:43:35.676Z,250
2017-09-10T12:44:36.736Z,260
2017-09-10T12:45:35.806Z,280
2017-09-10T12:46:35.843Z,300
2017-09-10T12:47:36.606Z,290
2017-09-10T12:48:36.626Z,270
2017-09-10T12:49:36.369Z,230
2017-09-10T12:50:36.777Z,205
2017-09-10T12:51:36.828Z,210
2017-09-10T12:52:37.167Z,225
2017-09-10T12:53:36.896Z,230
2017-09-10T12:54:36.605Z,235
2017-09-10T12:55:37.032Z,225
2017-09-10T12:56:37.452Z,210
2017-09-10T12:57:37.502Z,200
2017-09-10T12:58:37.852Z,195
2017-09-10T12:59:37.566Z,195
2017-09-10T13:00:37.278Z,215
2017-09-10T13:01:37.688Z,245
2017-09-10T13:02:38.725Z,290
2017-09-10T13:03:38.772Z,335
2017-09-10T13:04:38.802Z,405
2017-09-10T13:05:38.217Z,405
2017-09-10T13:06:38.884Z,350
2017-09-10T13:07:38.911Z,295
2017-09-10T13:08:38.618Z,255
2017-09-10T13:09:39.050Z,220
2017-09-10T13:10:38.768Z,215
2017-09-10T13:11:39.517Z,200
2017-09-10T13:12:39.555Z,165
2017-09-10T13:13:39.905Z,155
2017-09-10T13:14:39.934Z,205
2017-09-10T13:15:39.660Z,260
2017-09-10T13:16:39.113Z,310
2017-09-10T13:17:40.102Z,365
2017-09-10T13:18:39.810Z,405
2017-09-10T13:19:40.254Z,435
2017-09-10T13:20:39.951Z,425
2017-09-10T13:21:40.049Z,390
2017-09-10T13:22:40.720Z,330
2017-09-10T13:23:40.450Z,280
2017-09-10T13:24:41.175Z,240
2017-09-10T13:25:41.539Z,225
2017-09-10T13:26:40.935Z,210
2017-09-10T13:27:41.683Z,190
2017-09-10T13:28:41.703Z,170
2017-09-10T13:29:41.731Z,165
2017-09-10T13:30:42.459Z,170
2017-09-10T13:31:42.198Z,165
2017-09-10T13:32:42.522Z,160
2017-09-10T13:33:41.925Z,155
2017-09-10T13:34:43.001Z,150
2017-09-10T13:35:42.083Z,150
2017-09-10T13:36:42.743Z,155
2017-09-10T13:37:43.099Z,155
2017-09-10T13:38:42.794Z,180
2017-09-10T13:39:41.892Z,175
2017-09-10T13:40:42.561Z,170
2017-09-10T13:41:43.295Z,170
2017-09-10T13:42:43.030Z,175
2017-09-10T13:43:43.108Z,165
2017-09-10T13:44:43.566Z,160
2017-09-10T13:45:44.313Z,155
2017-09-10T13:46:44.658Z,155
2017-09-10T13:47:44.370Z,165
2017-09-10T13:48:44.747Z,175
2017-09-10T13:49:44.464Z,200
2017-09-10T13:50:44.160Z,210
2017-09-10T13:51:44.542Z,215
2017-09-10T13:52:44.544Z,215
2017-09-10T13:53:44.284Z,195
2017-09-10T13:54:44.637Z,190
2017-09-10T13:55:44.663Z,180
2017-09-10T13:56:45.032Z,175
2017-09-10T13:57:44.108Z,205
2017-09-10T13:58:45.099Z,275
2017-09-10T13:59:45.140Z,285
2017-09-10T14:00:45.173Z,255
2017-09-10T14:01:45.211Z,225
2017-09-10T14:02:44.937Z,195
2017-09-10T14:03:45.019Z,205
2017-09-10T14:04:45.073Z,225
2017-09-10T14:05:45.100Z,225